Flight Track Log - Related Links

Times and Time Zones

All times are in EDT time to prevent confusion due to time zone crossing. See the CES5696 flight status page for this flight to view local times or setup timezone preferences in your user account.

Time Position Orientation Groundspeed Altitude Reporting Facility
EDT Latitude Longitude Course Direction KTS MPH feet Rate Location/Type
Wed 10:38:00 PM 35.4885 112.9347 31° Northeast  Level Estimated
Wed 10:39:00 PM 35.5714 112.9960 31° Northeast  Level Estimated
Wed 10:40:00 PM 35.6542 113.0574 31° Northeast  Level Estimated
Wed 10:41:00 PM 35.7371 113.1190 31° Northeast  Level Estimated
Wed 10:42:00 PM 35.8199 113.1807 31° Northeast  Level Estimated
Wed 10:43:00 PM 35.9026 113.2426 31° Northeast  Level Estimated
Wed 10:44:00 PM 35.9854 113.3045 31° Northeast  Level Estimated
Wed 10:45:00 PM 36.0681 113.3666 31° Northeast  Level Estimated
Wed 10:46:00 PM 36.1507 113.4289 31° Northeast  Level Estimated
Wed 10:47:00 PM 36.2334 113.4912 31° Northeast  Level Estimated
Wed 10:48:00 PM 36.3160 113.5537 31° Northeast  Level Estimated
Wed 10:49:00 PM 36.3985 113.6163 31° Northeast  Level Estimated
Wed 10:50:00 PM 36.4811 113.6791 31° Northeast  Level Estimated
Wed 10:51:00 PM 36.5636 113.7420 31° Northeast  Level Estimated
Wed 10:52:00 PM 36.6461 113.8050 32° Northeast  Level Estimated
Wed 10:53:00 PM 36.7285 113.8682 32° Northeast  Level Estimated
Wed 10:54:00 PM 36.8109 113.9315 32° Northeast  Level Estimated
Wed 10:55:00 PM 36.8933 113.9949 32° Northeast  Level Estimated
Wed 10:56:00 PM 36.9756 114.0585 32° Northeast  Level Estimated
Wed 10:57:00 PM 37.0579 114.1222 32° Northeast  Level Estimated
Wed 10:58:00 PM 37.1402 114.1860 32° Northeast  Level Estimated
Wed 10:59:00 PM 37.2224 114.2500 32° Northeast  Level Estimated
Wed 11:00:00 PM 37.3046 114.3141 32° Northeast  Level Estimated
Wed 11:01:00 PM 37.3868 114.3784 32° Northeast  Level Estimated
Wed 11:02:00 PM 37.4689 114.4428 32° Northeast  Level Estimated
Wed 11:03:00 PM 37.5510 114.5074 32° Northeast  Level Estimated
Wed 11:04:00 PM 37.6331 114.5721 32° Northeast  Level Estimated
Wed 11:05:00 PM 37.7151 114.6369 32° Northeast  Level Estimated
Wed 11:06:00 PM 37.7971 114.7019 32° Northeast  Level Estimated
Wed 11:07:00 PM 37.8791 114.7670 32° Northeast  Level Estimated
Wed 11:08:00 PM 37.9610 114.8323 32° Northeast  Level Estimated
Wed 11:09:00 PM 38.0429 114.8977 32° Northeast  Level Estimated
Wed 11:10:00 PM 38.1247 114.9632 32° Northeast  Level Estimated
Wed 11:11:00 PM 38.2065 115.0290 32° Northeast  Level Estimated
Wed 11:12:00 PM 38.2883 115.0948 32° Northeast  Level Estimated
Wed 11:13:00 PM 38.3700 115.1608 32° Northeast  Level Estimated
Wed 11:14:00 PM 38.4517 115.2270 32° Northeast  Level Estimated
Wed 11:15:00 PM 38.5334 115.2933 32° Northeast  Level Estimated
Wed 11:16:00 PM 38.6150 115.3597 32° Northeast  Level Estimated
Wed 11:17:00 PM 38.6966 115.4263 32° Northeast  Level Estimated
Wed 11:18:00 PM 38.7781 115.4931 33° Northeast  Level Estimated
Wed 11:19:00 PM 38.8597 115.5600 33° Northeast  Level Estimated
Wed 11:20:00 PM 38.9411 115.6270 33° Northeast  Level Estimated
Wed 11:21:00 PM 39.0226 115.6943 33° Northeast  Level Estimated
Wed 11:22:00 PM 39.1040 115.7616 33° Northeast  Level Estimated
Wed 11:23:00 PM 39.1853 115.8291 33° Northeast  Level Estimated
Wed 11:24:00 PM 39.2666 115.8968 33° Northeast  Level Estimated
Wed 11:25:00 PM 39.3479 115.9647 33° Northeast  Level Estimated
Wed 11:26:00 PM 39.4292 116.0327 33° Northeast  Level Estimated
Wed 11:27:00 PM 39.5104 116.1008 33° Northeast  Level Estimated
Wed 11:28:00 PM 39.5915 116.1692 33° Northeast  Level Estimated
Wed 11:29:00 PM 39.6726 116.2376 33° Northeast  Level Estimated
Wed 11:30:00 PM 39.7537 116.3063 33° Northeast  Level Estimated
Wed 11:31:00 PM 39.8348 116.3751 33° Northeast  Level Estimated
Wed 11:32:00 PM 39.9158 116.4440 33° Northeast  Level Estimated
Wed 11:33:00 PM 39.9967 116.5131 33° Northeast  Level Estimated
Wed 11:34:00 PM 40.0776 116.5824 33° Northeast  Level Estimated
Wed 11:35:00 PM 40.0801 116.5846 33° Northeast  Level Estimated
Wed 11:36:00 PM 40.0801 116.5846 288° West  Level Estimated
Wed 11:37:00 PM 40.0801 116.5846 288° West  Level Estimated
Wed 11:38:00 PM 40.0801 116.5846 288° West  Level Estimated
Wed 11:39:00 PM 40.0801 116.5846 288° West  Level Estimated
Wed 11:40:00 PM 40.0801 116.5846 288° West  Level Estimated
Wed 11:41:00 PM 40.0801 116.5846 288° West  Level Estimated
Wed 11:42:00 PM 40.0801 116.5846 288° West  Level Estimated
Wed 11:43:00 PM 40.0801 116.5846 288° West  Level Estimated
Wed 11:44:00 PM 40.0801 116.5846 288° West  Level Estimated
Wed 11:45:00 PM 40.0801 116.5846 288° West  Level Estimated
Wed 11:46:00 PM 40.0801 116.5846 288° West  Level Estimated
Wed 11:47:00 PM 40.0801 116.5846 288° West  Level Estimated
Wed 11:48:00 PM 40.0801 116.5846 288° West  Level Estimated
Wed 11:49:00 PM 40.0801 116.5846 288° West  Level Estimated
Wed 11:50:00 PM 40.0801 116.5846 288° West  Level Estimated

Login

Don't have an account? Register now (free) for customized features, flight alerts, and more!